createdAt,value
2023-05-01T00:00:30.237Z,96389.69
2023-05-01T00:03:01.996Z,96402.19
2023-05-01T00:05:33.644Z,96391.53
2023-05-01T00:08:05.452Z,96393.25
2023-05-01T00:10:40.244Z,96390.19
2023-05-01T00:13:11.879Z,96395.16
2023-05-01T00:15:43.697Z,96397.78
2023-05-01T00:18:15.465Z,96386.66
2023-05-01T00:20:47.443Z,96377.47
2023-05-01T00:23:18.958Z,96382.81
2023-05-01T00:25:50.655Z,96381.16
2023-05-01T00:28:23.349Z,96388.31
2023-05-01T00:31:02.224Z,96381.50
2023-05-01T00:33:35.187Z,96380.63
2023-05-01T00:36:07.104Z,96382.94
2023-05-01T00:38:40.273Z,96379.91
2023-05-01T00:41:12.343Z,96369.69
2023-05-01T00:43:45.320Z,96372.94
2023-05-01T00:46:20.711Z,96376.06
2023-05-01T00:48:54.243Z,96375.25
2023-05-01T00:51:29.110Z,96373.28
2023-05-01T00:54:01.629Z,96373.91
2023-05-01T00:56:33.428Z,96366.06
2023-05-01T00:59:05.665Z,96372.06
2023-05-01T01:01:37.398Z,96372.53
2023-05-01T01:04:09.173Z,96360.25
2023-05-01T01:07:11.670Z,96366.28
2023-05-01T01:10:02.604Z,96365.44
2023-05-01T01:13:09.454Z,96362.88
2023-05-01T01:16:11.681Z,96350.28
2023-05-01T01:19:20.365Z,96357.63
2023-05-01T01:21:58.915Z,96348.09
2023-05-01T01:25:14.883Z,96355.63
2023-05-01T01:28:11.580Z,96351.53
2023-05-01T01:30:52.196Z,96357.34
2023-05-01T01:34:02.517Z,96350.22
2023-05-01T01:36:49.234Z,96351.91
2023-05-01T01:39:52.952Z,96353.84
2023-05-01T01:42:39.105Z,96361.28
2023-05-01T01:45:23.745Z,96363.53
2023-05-01T01:47:57.366Z,96353.50
2023-05-01T01:50:29.196Z,96356.78
2023-05-01T01:53:04.230Z,96360.03
2023-05-01T01:55:36.402Z,96354.09
2023-05-01T01:58:10.614Z,96352.19
2023-05-01T02:00:45.633Z,96348.34
2023-05-01T02:03:17.566Z,96355.19
2023-05-01T02:05:50.342Z,96351.44
2023-05-01T02:08:24.654Z,96347.41
2023-05-01T02:11:01.711Z,96349.69
2023-05-01T02:13:35.414Z,96342.78
2023-05-01T02:16:08.339Z,96335.56
2023-05-01T02:18:41.676Z,96339.53
2023-05-01T02:21:15.132Z,96346.50
2023-05-01T02:23:46.940Z,96351.47
2023-05-01T02:26:26.620Z,96352.34
2023-05-01T02:28:59.413Z,96352.03
2023-05-01T02:31:31.045Z,96352.81
2023-05-01T02:34:02.664Z,96351.94
2023-05-01T02:36:40.514Z,96350.84
2023-05-01T02:39:12.249Z,96361.25
2023-05-01T02:41:48.788Z,96350.63
2023-05-01T02:44:20.809Z,96360.50
2023-05-01T02:46:55.339Z,96343.25
2023-05-01T02:49:27.678Z,96353.25
2023-05-01T02:52:00.983Z,96347.38
2023-05-01T02:54:33.047Z,96350.19
2023-05-01T02:57:06.280Z,96347.59
2023-05-01T02:59:38.219Z,96342.56
2023-05-01T03:02:09.775Z,96344.66
2023-05-01T03:04:43.803Z,96346.94
2023-05-01T03:07:15.516Z,96345.41
2023-05-01T03:09:47.098Z,96347.78
2023-05-01T03:12:18.920Z,96351.72
2023-05-01T03:14:50.521Z,96342.16
2023-05-01T03:17:22.746Z,96345.19
2023-05-01T03:19:54.558Z,96336.19
2023-05-01T03:22:29.759Z,96342.47
2023-05-01T03:25:01.575Z,96339.97
2023-05-01T03:27:33.187Z,96337.16
2023-05-01T03:30:05.623Z,96336.25
2023-05-01T03:32:37.245Z,96336.47
2023-05-01T03:35:09.429Z,96340.41
2023-05-01T03:37:41.444Z,96330.44
2023-05-01T03:40:13.822Z,96335.22
2023-05-01T03:42:45.445Z,96335.97
2023-05-01T03:45:17.191Z,96330.63
2023-05-01T03:47:48.801Z,96334.00
2023-05-01T03:50:20.666Z,96326.75
2023-05-01T03:52:52.260Z,96330.50
2023-05-01T03:55:23.837Z,96335.22
2023-05-01T03:57:55.557Z,96335.88
2023-05-01T04:00:27.207Z,96339.25
2023-05-01T04:03:02.039Z,96345.84
2023-05-01T04:05:34.229Z,96341.53
2023-05-01T04:08:06.016Z,96335.41
2023-05-01T04:10:37.582Z,96334.78
2023-05-01T04:13:09.239Z,96336.63
2023-05-01T04:15:45.941Z,96335.00
2023-05-01T04:18:17.564Z,96338.16
2023-05-01T04:20:49.321Z,96341.41
2023-05-01T04:23:22.155Z,96336.72
2023-05-01T04:25:54.756Z,96340.19
2023-05-01T04:28:27.844Z,96339.63
2023-05-01T04:30:59.573Z,96346.91
2023-05-01T04:33:31.117Z,96348.66
2023-05-01T04:36:05.086Z,96341.91
2023-05-01T04:38:37.454Z,96340.38
2023-05-01T04:41:09.464Z,96352.34
2023-05-01T04:43:40.983Z,96353.25
2023-05-01T04:46:19.842Z,96356.06
2023-05-01T04:48:51.480Z,96343.84
2023-05-01T04:51:23.405Z,96352.09
2023-05-01T04:53:55.777Z,96352.09
2023-05-01T04:56:27.375Z,96359.53
2023-05-01T04:59:01.449Z,96357.53
2023-05-01T05:01:36.138Z,96367.94
2023-05-01T05:04:09.962Z,96364.69
2023-05-01T05:06:41.792Z,96366.38
2023-05-01T05:09:14.267Z,96362.03
2023-05-01T05:11:46.095Z,96368.97
2023-05-01T05:14:17.694Z,96366.59
2023-05-01T05:16:49.387Z,96367.47
2023-05-01T05:19:20.994Z,96364.28
2023-05-01T05:21:54.781Z,96372.28
2023-05-01T05:24:26.371Z,96371.94
2023-05-01T05:26:58.069Z,96372.69
2023-05-01T05:29:29.680Z,96379.63
2023-05-01T05:32:01.635Z,96369.31
2023-05-01T05:34:33.249Z,96373.78
2023-05-01T05:37:07.372Z,96383.41
2023-05-01T05:39:39.021Z,96380.78
2023-05-01T05:42:10.583Z,96377.75
2023-05-01T05:44:42.149Z,96386.47
2023-05-01T05:47:13.750Z,96375.16
2023-05-01T05:49:45.318Z,96382.13
2023-05-01T05:52:17.609Z,96378.19
2023-05-01T05:54:49.473Z,96382.53
2023-05-01T05:57:21.121Z,96382.97
2023-05-01T05:59:55.100Z,96379.50
2023-05-01T06:02:27.169Z,96380.72
2023-05-01T06:04:59.414Z,96385.66
2023-05-01T06:07:33.135Z,96379.03
2023-05-01T06:10:05.434Z,96385.84
2023-05-01T06:12:41.210Z,96381.22
2023-05-01T06:15:22.427Z,96381.94
2023-05-01T06:17:54.190Z,96384.31
2023-05-01T06:20:28.403Z,96377.13
2023-05-01T06:23:00.007Z,96388.78
2023-05-01T06:25:31.639Z,96383.56
2023-05-01T06:28:03.947Z,96380.75
2023-05-01T06:30:35.674Z,96386.38
2023-05-01T06:33:07.346Z,96386.22
2023-05-01T06:35:40.092Z,96388.63
2023-05-01T06:38:11.670Z,96383.41
2023-05-01T06:40:43.391Z,96393.84
2023-05-01T06:43:15.523Z,96388.09
2023-05-01T06:45:47.108Z,96403.78
2023-05-01T06:48:18.664Z,96394.56
2023-05-01T06:50:50.375Z,96402.78
2023-05-01T06:53:21.947Z,96396.41
2023-05-01T06:55:53.485Z,96399.81
2023-05-01T06:58:25.035Z,96404.22
2023-05-01T07:00:56.740Z,96405.34
2023-05-01T07:03:28.387Z,96408.16
2023-05-01T07:05:59.998Z,96411.59
2023-05-01T07:08:32.219Z,96418.56
2023-05-01T07:11:03.845Z,96417.06
2023-05-01T07:13:35.546Z,96412.28
2023-05-01T07:16:07.794Z,96408.53
2023-05-01T07:18:39.421Z,96410.84
2023-05-01T07:21:11.997Z,96414.34
2023-05-01T07:23:43.611Z,96412.06
2023-05-01T07:26:15.181Z,96415.97
2023-05-01T07:28:46.771Z,96408.88
2023-05-01T07:31:18.470Z,96411.19
2023-05-01T07:33:51.109Z,96420.19
2023-05-01T07:36:22.873Z,96413.38
2023-05-01T07:38:55.426Z,96420.47
2023-05-01T07:41:27.122Z,96413.38
2023-05-01T07:43:59.902Z,96417.81
2023-05-01T07:46:33.578Z,96413.78
2023-05-01T07:49:05.504Z,96417.84
2023-05-01T07:51:40.194Z,96414.44
2023-05-01T07:54:11.978Z,96418.84
2023-05-01T07:56:47.053Z,96413.78
2023-05-01T07:59:19.555Z,96429.22
2023-05-01T08:01:51.150Z,96424.16
2023-05-01T08:04:23.488Z,96425.31
2023-05-01T08:06:55.209Z,96420.09
2023-05-01T08:09:27.021Z,96424.56
2023-05-01T08:11:58.603Z,96428.28
2023-05-01T08:14:30.830Z,96431.47
2023-05-01T08:17:02.382Z,96434.22
2023-05-01T08:19:34.849Z,96438.22
2023-05-01T08:22:06.395Z,96432.44
2023-05-01T08:24:42.777Z,96435.19
2023-05-01T08:27:17.475Z,96436.53
2023-05-01T08:29:49.602Z,96435.84
2023-05-01T08:32:21.716Z,96435.84
2023-05-01T08:34:53.386Z,96433.22
2023-05-01T08:37:27.781Z,96442.41
2023-05-01T08:39:59.392Z,96443.25
2023-05-01T08:42:39.011Z,96442.63
2023-05-01T08:45:14.215Z,96440.69
2023-05-01T08:47:49.525Z,96442.91
2023-05-01T08:50:22.826Z,96446.78
2023-05-01T08:52:56.041Z,96452.03
2023-05-01T08:55:30.134Z,96442.13
2023-05-01T08:58:04.087Z,96441.41
2023-05-01T09:00:39.614Z,96458.75
2023-05-01T09:03:14.508Z,96445.13
2023-05-01T09:05:47.066Z,96446.97
2023-05-01T09:08:20.769Z,96452.28
2023-05-01T09:10:54.135Z,96453.28
2023-05-01T09:13:26.370Z,96448.97
2023-05-01T09:15:58.078Z,96452.16
2023-05-01T09:18:31.387Z,96450.75
2023-05-01T09:21:03.554Z,96452.00
2023-05-01T09:23:39.857Z,96457.06
2023-05-01T09:26:11.967Z,96451.59
2023-05-01T09:28:48.231Z,96459.88
2023-05-01T09:31:28.992Z,96458.41
2023-05-01T09:34:04.006Z,96457.63
2023-05-01T09:36:37.065Z,96465.25
2023-05-01T09:39:08.754Z,96458.66
2023-05-01T09:41:52.661Z,96459.13
2023-05-01T09:44:24.765Z,96467.00
2023-05-01T09:46:56.402Z,96463.06
2023-05-01T09:49:46.426Z,96464.84
2023-05-01T09:52:18.266Z,96458.50
2023-05-01T09:54:49.901Z,96469.16
2023-05-01T09:57:40.705Z,96462.19
2023-05-01T10:00:15.533Z,96460.34
2023-05-01T10:02:51.252Z,96468.84
2023-05-01T10:05:23.663Z,96465.22
2023-05-01T10:08:03.710Z,96467.63
2023-05-01T10:10:36.004Z,96466.97
2023-05-01T10:13:15.323Z,96467.16
2023-05-01T10:15:47.034Z,96464.56
2023-05-01T10:18:19.901Z,96458.50
2023-05-01T10:20:51.871Z,96468.72
2023-05-01T10:23:25.429Z,96459.59
2023-05-01T10:26:04.052Z,96463.03
2023-05-01T10:28:37.169Z,96453.19
2023-05-01T10:31:10.462Z,96455.50
2023-05-01T10:33:46.741Z,96451.25
2023-05-01T10:36:34.077Z,96455.25
2023-05-01T10:39:07.200Z,96456.47
2023-05-01T10:42:17.962Z,96460.94
2023-05-01T10:44:49.709Z,96448.66
2023-05-01T10:47:29.885Z,96456.28
2023-05-01T10:50:15.970Z,96462.53
2023-05-01T10:53:12.703Z,96456.28
2023-05-01T10:55:49.467Z,96444.91
2023-05-01T10:58:39.518Z,96453.50
2023-05-01T11:01:37.738Z,96447.44
2023-05-01T11:04:27.284Z,96450.91
2023-05-01T11:07:05.447Z,96447.69
2023-05-01T11:09:55.132Z,96445.94
2023-05-01T11:12:45.845Z,96443.22
2023-05-01T11:15:34.292Z,96442.69
2023-05-01T11:20:49.492Z,96434.75
2023-05-01T11:23:22.729Z,96448.47
2023-05-01T11:26:04.727Z,96439.44
2023-05-01T11:28:38.414Z,96432.06
2023-05-01T11:31:13.663Z,96442.53
2023-05-01T11:33:45.350Z,96436.44
2023-05-01T11:38:53.342Z,96438.88
2023-05-01T11:41:28.565Z,96442.75
2023-05-01T11:44:00.385Z,96447.47
2023-05-01T11:46:36.213Z,96431.69
2023-05-01T11:49:08.637Z,96446.00
2023-05-01T11:51:40.211Z,96441.06
2023-05-01T11:54:15.189Z,96443.69
2023-05-01T11:56:47.622Z,96445.47
2023-05-01T11:59:19.169Z,96442.06
2023-05-01T12:01:51.131Z,96439.97
2023-05-01T12:04:31.674Z,96440.94
2023-05-01T12:07:23.857Z,96450.00
2023-05-01T12:09:55.572Z,96438.88
2023-05-01T12:12:27.313Z,96446.94
2023-05-01T12:14:59.248Z,96447.59
2023-05-01T12:17:31.605Z,96444.91
2023-05-01T12:20:04.527Z,96447.81
2023-05-01T12:22:52.069Z,96445.56
2023-05-01T12:25:32.057Z,96435.72
2023-05-01T12:28:10.296Z,96454.94
2023-05-01T12:30:43.824Z,96448.72
2023-05-01T12:33:16.562Z,96458.13
2023-05-01T12:35:50.822Z,96450.34
2023-05-01T12:38:23.638Z,96445.31
2023-05-01T12:41:00.033Z,96441.44
2023-05-01T12:43:37.306Z,96444.94
2023-05-01T12:46:15.845Z,96442.97
2023-05-01T12:48:49.199Z,96449.34
2023-05-01T12:51:21.427Z,96442.25
2023-05-01T12:53:57.430Z,96452.28
2023-05-01T12:56:29.057Z,96444.44
2023-05-01T12:59:00.701Z,96448.31
2023-05-01T13:01:32.396Z,96441.88
2023-05-01T13:04:04.487Z,96439.66
2023-05-01T13:06:36.335Z,96451.56
2023-05-01T13:09:11.172Z,96437.47
2023-05-01T13:11:42.834Z,96436.56
2023-05-01T13:14:14.513Z,96440.50
2023-05-01T13:16:46.616Z,96434.59
2023-05-01T13:19:28.874Z,96432.00
2023-05-01T13:22:01.052Z,96431.59
2023-05-01T13:24:40.534Z,96430.72
2023-05-01T13:27:15.194Z,96435.31
2023-05-01T13:29:55.903Z,96429.28
2023-05-01T13:32:28.221Z,96434.28
2023-05-01T13:35:03.312Z,96430.63
2023-05-01T13:37:42.468Z,96436.06
2023-05-01T13:40:16.477Z,96434.63
2023-05-01T13:42:54.188Z,96431.50
2023-05-01T13:45:32.142Z,96426.59
2023-05-01T13:48:05.254Z,96428.25
2023-05-01T13:50:42.965Z,96439.69
2023-05-01T13:53:14.736Z,96449.25
2023-05-01T13:55:46.489Z,96444.22
2023-05-01T13:58:18.092Z,96438.38
2023-05-01T14:00:49.918Z,96448.81
2023-05-01T14:03:24.616Z,96445.03
2023-05-01T14:05:56.380Z,96443.09
2023-05-01T14:08:30.743Z,96434.97
2023-05-01T14:11:09.675Z,96438.91
2023-05-01T14:13:43.498Z,96433.72
2023-05-01T14:16:28.345Z,96438.28
2023-05-01T14:19:00.062Z,96429.81
2023-05-01T14:21:31.948Z,96429.56
2023-05-01T14:24:04.380Z,96430.81
2023-05-01T14:26:40.555Z,96425.78
2023-05-01T14:29:29.742Z,96422.94
2023-05-01T14:32:05.249Z,96423.75
2023-05-01T14:34:42.252Z,96430.44
2023-05-01T14:37:17.214Z,96432.16
2023-05-01T14:39:48.813Z,96426.84
2023-05-01T14:42:20.551Z,96436.88
2023-05-01T14:44:52.114Z,96437.69
2023-05-01T14:47:23.706Z,96437.66
2023-05-01T14:49:55.356Z,96444.63
2023-05-01T14:52:27.770Z,96426.41
2023-05-01T14:55:01.641Z,96439.88
2023-05-01T14:57:33.253Z,96438.03
2023-05-01T15:00:09.155Z,96436.28
2023-05-01T15:02:40.800Z,96431.53
2023-05-01T15:05:12.897Z,96428.31
2023-05-01T15:07:44.550Z,96427.72
2023-05-01T15:10:16.407Z,96427.94
2023-05-01T15:12:48.158Z,96430.97
2023-05-01T15:15:21.438Z,96429.13
2023-05-01T15:17:53.106Z,96426.19
2023-05-01T15:20:24.673Z,96423.72
2023-05-01T15:22:56.322Z,96429.31
2023-05-01T15:25:28.247Z,96433.91
2023-05-01T15:27:59.863Z,96426.00
2023-05-01T15:30:31.731Z,96428.13
2023-05-01T15:33:04.837Z,96439.78
2023-05-01T15:35:36.400Z,96430.53
2023-05-01T15:38:07.998Z,96428.59
2023-05-01T15:40:39.607Z,96436.00
2023-05-01T15:43:11.176Z,96429.88
2023-05-01T15:45:44.573Z,96439.59
2023-05-01T15:48:16.358Z,96436.41
2023-05-01T15:50:51.125Z,96432.28
2023-05-01T15:53:30.498Z,96436.63
2023-05-01T15:56:03.149Z,96444.91
2023-05-01T15:58:34.656Z,96452.41
2023-05-01T16:01:06.343Z,96470.91
2023-05-01T16:03:44.585Z,96467.84
2023-05-01T16:06:19.108Z,96468.78
2023-05-01T16:08:50.981Z,96469.47
2023-05-01T16:11:22.580Z,96476.00
2023-05-01T16:13:54.989Z,96476.78
2023-05-01T16:16:28.139Z,96477.97
2023-05-01T16:19:00.510Z,96474.31
2023-05-01T16:21:32.940Z,96485.47
2023-05-01T16:24:07.429Z,96482.41
2023-05-01T16:26:41.462Z,96488.59
2023-05-01T16:29:13.146Z,96493.25
2023-05-01T16:31:48.467Z,96496.94
2023-05-01T16:34:25.470Z,96499.41
2023-05-01T16:36:57.161Z,96496.81
2023-05-01T16:39:28.783Z,96493.00
2023-05-01T16:42:01.617Z,96496.38
2023-05-01T16:44:36.722Z,96490.72
2023-05-01T16:47:11.312Z,96489.09
2023-05-01T16:49:42.951Z,96483.13
2023-05-01T16:52:15.698Z,96484.53
2023-05-01T16:54:48.228Z,96491.16
2023-05-01T16:57:21.222Z,96509.94
2023-05-01T16:59:53.236Z,96514.69
2023-05-01T17:02:24.841Z,96514.75
2023-05-01T17:04:56.435Z,96521.88
2023-05-01T17:07:27.992Z,96518.88
2023-05-01T17:09:59.867Z,96526.50
2023-05-01T17:12:31.898Z,96530.25
2023-05-01T17:15:04.889Z,96529.16
2023-05-01T17:17:39.296Z,96535.47
2023-05-01T17:20:11.816Z,96530.69
2023-05-01T17:22:44.531Z,96534.84
2023-05-01T17:25:19.172Z,96537.31
2023-05-01T17:27:52.820Z,96548.47
2023-05-01T17:30:24.500Z,96557.22
2023-05-01T17:32:57.178Z,96555.25
2023-05-01T17:35:29.044Z,96540.09
2023-05-01T17:38:00.826Z,96538.06
2023-05-01T17:40:32.441Z,96546.38
2023-05-01T17:43:04.313Z,96546.50
2023-05-01T17:45:38.794Z,96552.56
2023-05-01T17:48:11.059Z,96556.22
2023-05-01T17:50:42.750Z,96549.19
2023-05-01T17:53:14.377Z,96541.50
2023-05-01T17:55:46.085Z,96533.91
2023-05-01T17:58:17.902Z,96528.53
2023-05-01T18:00:49.639Z,96525.25
2023-05-01T18:03:21.364Z,96532.31
2023-05-01T18:05:52.991Z,96537.78
2023-05-01T18:08:24.730Z,96538.47
2023-05-01T18:10:56.504Z,96558.97
2023-05-01T18:13:28.764Z,96570.38
2023-05-01T18:16:00.441Z,96563.19
2023-05-01T18:18:34.330Z,96574.31
2023-05-01T18:21:05.929Z,96584.38
2023-05-01T18:23:39.034Z,96581.97
2023-05-01T18:26:10.661Z,96583.47
2023-05-01T18:28:42.239Z,96580.44
2023-05-01T18:31:17.245Z,96601.31
2023-05-01T18:33:48.976Z,96598.13
2023-05-01T18:36:20.769Z,96608.56
2023-05-01T18:38:52.517Z,96616.53
2023-05-01T18:41:25.644Z,96615.16
2023-05-01T18:43:58.302Z,96618.66
2023-05-01T18:46:30.238Z,96630.38
2023-05-01T18:49:02.065Z,96632.25
2023-05-01T18:51:33.667Z,96632.88
2023-05-01T18:54:07.130Z,96638.66
2023-05-01T18:56:38.763Z,96656.50
2023-05-01T18:59:10.364Z,96661.09
2023-05-01T19:01:42.022Z,96669.00
2023-05-01T19:04:13.785Z,96675.03
2023-05-01T19:06:45.587Z,96669.63
2023-05-01T19:09:17.275Z,96673.28
2023-05-01T19:11:49.085Z,96669.66
2023-05-01T19:14:21.659Z,96670.22
2023-05-01T19:16:53.339Z,96668.03
2023-05-01T19:19:24.857Z,96671.69
2023-05-01T19:21:56.529Z,96683.31
2023-05-01T19:24:28.164Z,96678.16
2023-05-01T19:27:00.272Z,96672.69
2023-05-01T19:29:32.545Z,96660.97
2023-05-01T19:32:04.345Z,96664.97
2023-05-01T19:34:39.019Z,96663.81
2023-05-01T19:37:10.639Z,96657.03
2023-05-01T19:39:42.246Z,96662.56
2023-05-01T19:42:15.215Z,96660.47
2023-05-01T19:44:49.320Z,96663.03
2023-05-01T19:47:21.071Z,96668.34
2023-05-01T19:49:52.703Z,96670.28
2023-05-01T19:52:24.398Z,96674.03
2023-05-01T19:54:56.093Z,96676.22
2023-05-01T19:57:27.720Z,96676.78
2023-05-01T19:59:59.790Z,96673.50
2023-05-01T20:02:31.772Z,96667.91
2023-05-01T20:05:04.585Z,96665.72
2023-05-01T20:07:36.399Z,96667.53
2023-05-01T20:10:09.791Z,96659.50
2023-05-01T20:12:43.316Z,96653.41
2023-05-01T20:15:15.058Z,96647.13
2023-05-01T20:17:50.276Z,96645.53
2023-05-01T20:20:21.924Z,96660.31
2023-05-01T20:23:13.367Z,96664.56
2023-05-01T20:25:47.750Z,96658.91
2023-05-01T20:28:20.650Z,96657.00
2023-05-01T20:30:52.599Z,96674.03
2023-05-01T20:33:24.664Z,96693.22
2023-05-01T20:35:56.303Z,96703.72
2023-05-01T20:38:27.876Z,96705.22
2023-05-01T20:40:59.417Z,96696.41
2023-05-01T20:43:30.984Z,96704.56
2023-05-01T20:46:02.691Z,96708.72
2023-05-01T20:48:34.309Z,96705.91
2023-05-01T20:51:05.900Z,96713.03
2023-05-01T20:53:37.696Z,96704.94
2023-05-01T20:56:09.388Z,96716.09
2023-05-01T20:58:40.946Z,96713.53
2023-05-01T21:01:12.575Z,96713.38
2023-05-01T21:03:44.319Z,96719.34
2023-05-01T21:06:16.302Z,96721.63
2023-05-01T21:08:48.808Z,96722.50
2023-05-01T21:11:20.974Z,96719.19
2023-05-01T21:13:52.539Z,96724.34
2023-05-01T21:16:24.334Z,96713.72
2023-05-01T21:18:56.013Z,96724.22
2023-05-01T21:21:27.765Z,96726.38
2023-05-01T21:23:59.328Z,96720.13
2023-05-01T21:26:30.964Z,96733.72
2023-05-01T21:29:02.737Z,96737.63
2023-05-01T21:31:35.972Z,96752.97
2023-05-01T21:34:09.128Z,96755.13
2023-05-01T21:36:47.533Z,96757.13
2023-05-01T21:39:21.753Z,96749.38
2023-05-01T21:41:53.381Z,96748.13
2023-05-01T21:44:30.866Z,96750.41
2023-05-01T21:47:02.554Z,96746.81
2023-05-01T21:49:34.259Z,96745.03
2023-05-01T21:52:08.669Z,96757.13
2023-05-01T21:54:40.494Z,96753.47
2023-05-01T21:57:12.227Z,96765.91
2023-05-01T21:59:45.115Z,96770.53
2023-05-01T22:02:16.763Z,96770.88
2023-05-01T22:04:48.380Z,96783.56
2023-05-01T22:07:20.005Z,96784.47
2023-05-01T22:09:51.619Z,96776.84
2023-05-01T22:12:23.185Z,96777.56
2023-05-01T22:14:55.249Z,96771.34
2023-05-01T22:17:26.839Z,96776.72
2023-05-01T22:19:58.662Z,96780.22
2023-05-01T22:22:30.609Z,96783.03
2023-05-01T22:25:03.852Z,96777.53
2023-05-01T22:27:36.502Z,96772.28
2023-05-01T22:30:08.655Z,96769.69
2023-05-01T22:32:40.252Z,96766.13
2023-05-01T22:35:11.972Z,96765.03
2023-05-01T22:37:43.531Z,96761.28
2023-05-01T22:40:15.278Z,96761.81
2023-05-01T22:42:47.378Z,96755.84
2023-05-01T22:45:19.016Z,96761.56
2023-05-01T22:47:50.759Z,96753.66
2023-05-01T22:50:22.375Z,96749.19
2023-05-01T22:52:53.945Z,96753.03
2023-05-01T22:55:25.525Z,96743.16
2023-05-01T22:57:57.091Z,96739.84
2023-05-01T23:00:28.965Z,96740.44
2023-05-01T23:03:02.871Z,96738.63
2023-05-01T23:05:34.966Z,96748.69
2023-05-01T23:08:06.900Z,96746.78
2023-05-01T23:10:44.987Z,96740.88
2023-05-01T23:13:23.580Z,96743.78
2023-05-01T23:15:55.320Z,96744.69
2023-05-01T23:18:36.501Z,96746.72
2023-05-01T23:21:08.121Z,96752.22
2023-05-01T23:23:43.213Z,96750.16
2023-05-01T23:26:29.152Z,96748.41
2023-05-01T23:29:00.799Z,96742.22
2023-05-01T23:31:32.530Z,96748.88
2023-05-01T23:34:04.233Z,96748.09
2023-05-01T23:36:35.853Z,96754.28
2023-05-01T23:39:07.584Z,96755.31
2023-05-01T23:41:39.554Z,96751.41
2023-05-01T23:44:11.273Z,96763.25
2023-05-01T23:46:42.913Z,96749.81
2023-05-01T23:49:17.602Z,96759.16
2023-05-01T23:51:52.415Z,96762.25
2023-05-01T23:54:23.999Z,96765.03
2023-05-01T23:57:03.064Z,96764.91
2023-05-01T23:59:34.691Z,96764.69
